^^
Marion, Virginia Banner
 

U.S. Satellite Loop
U.S. National Satellite Loop
View Satellite

Live Doppler Radar
Blacksburg, VA Nexrad Doppler Radar
View Radar

NW Atlantic Satellite
U.S. National Satellite Loop
View Satellite

US WX Conditions
US Weather Conditions
View Wx Conditions


USA Weather Finder


 

Adwolf, VA. Station Historical Data
[ Providing Data Since 6/07/2007 ]
Station Historical Data
Daily Summary for April 15, 2018 Units:  Both    English   Metric
« Previous Day
Next Day »
Daily Weekly Monthly Yearly Custom
  High: Low: Average:
Temperature: TemperatureF °F /  -17.8 °C 49.1 °F /  9.5 °C 60.7 °F /  15.9 °C
Dew Point: DewpointF °F /  -17.8 °C 47.2 °F /  8.4 °C 54.2 °F /  12.3 °C
Humidity: Humidity% 62% 79%
Wind Speed: WindSpeedMPHmph /  0km/h - 2.7mph /  4.3km/h
Wind Gust: WindSpeedGustMPHmph /  0km/h - -
Wind- - SSE
Pressure: PressureIn in /  0 hPa 29.53 in /  999.9 hPa -
Precipitation: 1.51 in /  38.35 mm    
Historical Graphs
 
 
Tabular Data for April 15, 2018
Time Temperature Dew Point Pressure Wind Wind Speed Wind Gust Humidity Rainfall Rate (Hourly) solar Conditions
TemperatureF °F /  -17.8 °C DewpointF °F /  -17.8 °C PressureInin /  0hPa Calm     Humidity% HourlyPrecipInin /  0mm SoftwareType W/m2 Conditions
00:00 63.5 °F /  17.5 °C 50.7 °F /  10.4 °C 29.92in /  1013.1hPa ESE 2.0mph /  3.2km/h 4.0mph /  6.4km/h 63% 0.00in /  0mm WeatherDisplay:10.37 W/m2 CLR
00:10 63.4 °F /  17.4 °C 50.6 °F /  10.3 °C 29.92in /  1013.1hPa Calm   4.0mph /  6.4km/h 63% 0.00in /  0mm WeatherDisplay:10.37 W/m2 CLR
00:20 62.9 °F /  17.2 °C 50.5 °F /  10.3 °C 29.92in /  1013.1hPa SW 1.0mph /  1.6km/h 3.0mph /  4.8km/h 64% 0.00in /  0mm WeatherDisplay:10.37 W/m2 CLR
00:30 62.5 °F /  16.9 °C 51.0 °F /  10.6 °C 29.92in /  1013.1hPa SE 1.0mph /  1.6km/h 4.0mph /  6.4km/h 66% 0.00in /  0mm WeatherDisplay:10.37 W/m2 CLR
00:40 62.0 °F /  16.7 °C 50.9 °F /  10.5 °C 29.91in /  1012.8hPa SSE 1.0mph /  1.6km/h 4.0mph /  6.4km/h 67% 0.00in /  0mm WeatherDisplay:10.37 W/m2 CLR
00:50 61.5 °F /  16.4 °C 50.8 °F /  10.4 °C 29.91in /  1012.8hPa Calm   4.0mph /  6.4km/h 68% 0.00in /  0mm WeatherDisplay:10.37 W/m2 CLR
01:00 61.6 °F /  16.4 °C 51.3 °F /  10.7 °C 29.91in /  1012.8hPa NE 2.0mph /  3.2km/h 4.0mph /  6.4km/h 69% 0.00in /  0mm WeatherDisplay:10.37 W/m2 CLR
01:10 61.3 °F /  16.3 °C 51.4 °F /  10.8 °C 29.90in /  1012.4hPa Calm   2.0mph /  3.2km/h 70% 0.00in /  0mm WeatherDisplay:10.37 W/m2 CLR
01:20 61.0 °F /  16.1 °C 51.5 °F /  10.8 °C 29.90in /  1012.4hPa Calm   4.0mph /  6.4km/h 71% 0.00in /  0mm WeatherDisplay:10.37 W/m2 CLR
01:30 61.1 °F /  16.2 °C 51.6 °F /  10.9 °C 29.90in /  1012.4hPa Calm   3.0mph /  4.8km/h 71% 0.00in /  0mm WeatherDisplay:10.37 W/m2 CLR
01:40 60.9 °F /  16.1 °C 51.5 °F /  10.8 °C 29.90in /  1012.4hPa Calm   2.0mph /  3.2km/h 71% 0.00in /  0mm WeatherDisplay:10.37 W/m2 CLR
01:50 62.2 °F /  16.8 °C 51.9 °F /  11.1 °C 29.90in /  1012.4hPa NE 3.0mph /  4.8km/h 5.0mph /  8km/h 69% 0.00in /  0mm WeatherDisplay:10.37 W/m2 CLR
02:00 62.2 °F /  16.8 °C 51.5 °F /  10.8 °C 29.90in /  1012.4hPa NE 2.0mph /  3.2km/h 4.0mph /  6.4km/h 68% 0.00in /  0mm WeatherDisplay:10.37 W/m2 CLR
02:10 60.7 °F /  15.9 °C 51.2 °F /  10.7 °C 29.90in /  1012.4hPa Calm   3.0mph /  4.8km/h 71% 0.00in /  0mm WeatherDisplay:10.37 W/m2 CLR
02:20 59.7 °F /  15.4 °C 51.0 °F /  10.6 °C 29.89in /  1012.1hPa Calm   1.0mph /  1.6km/h 73% 0.00in /  0mm WeatherDisplay:10.37 W/m2 CLR
02:30 59.1 °F /  15.1 °C 51.2 °F /  10.7 °C 29.88in /  1011.7hPa Calm   4.0mph /  6.4km/h 75% 0.00in /  0mm WeatherDisplay:10.37 W/m2 CLR
02:40 59.2 °F /  15.1 °C 51.3 °F /  10.7 °C 29.89in /  1012.1hPa SE 2.0mph /  3.2km/h 4.0mph /  6.4km/h 75% 0.00in /  0mm WeatherDisplay:10.37 W/m2 CLR
02:50 60.2 °F /  15.7 °C 51.8 °F /  11 °C 29.88in /  1011.7hPa SE 2.0mph /  3.2km/h 8.0mph /  12.9km/h 74% 0.00in /  0mm WeatherDisplay:10.37 W/m2 CLR
03:00 60.6 °F /  15.9 °C 51.5 °F /  10.8 °C 29.88in /  1011.7hPa North 3.0mph /  4.8km/h 5.0mph /  8km/h 72% 0.00in /  0mm WeatherDisplay:10.37 W/m2 CLR
03:10 59.5 °F /  15.3 °C 51.6 °F /  10.9 °C 29.88in /  1011.7hPa WSW 2.0mph /  3.2km/h 4.0mph /  6.4km/h 75% 0.00in /  0mm WeatherDisplay:10.37 W/m2 CLR
03:20 60.2 °F /  15.7 °C 51.5 °F /  10.8 °C 29.86in /  1011.1hPa SSE 2.0mph /  3.2km/h 6.0mph /  9.7km/h 73% 0.00in /  0mm WeatherDisplay:10.37 W/m2 CLR
03:30 63.6 °F /  17.6 °C 52.5 °F /  11.4 °C 29.85in /  1010.7hPa SSE 2.0mph /  3.2km/h 14.0mph /  22.5km/h 67% 0.00in /  0mm WeatherDisplay:10.37 W/m2 SCT
03:40 65.5 °F /  18.6 °C 52.6 °F /  11.4 °C 29.85in /  1010.7hPa SSE 6.0mph /  9.7km/h 14.0mph /  22.5km/h 63% 0.00in /  0mm WeatherDisplay:10.37 W/m2 SCT
03:50 66.3 °F /  19.1 °C 52.9 °F /  11.6 °C 29.84in /  1010.4hPa SE 5.0mph /  8km/h 15.0mph /  24.1km/h 62% 0.00in /  0mm WeatherDisplay:10.37 W/m2 SCT
04:00 66.2 °F /  19 °C 52.8 °F /  11.6 °C 29.83in /  1010hPa SE 5.0mph /  8km/h 11.0mph /  17.7km/h 62% 0.00in /  0mm WeatherDisplay:10.37 W/m2 SCT
04:10 65.9 °F /  18.8 °C 53.0 °F /  11.7 °C 29.82in /  1009.7hPa SSE 5.0mph /  8km/h 13.0mph /  20.9km/h 63% 0.00in /  0mm WeatherDisplay:10.37 W/m2 CLR
04:20 66.0 °F /  18.9 °C 53.0 °F /  11.7 °C 29.82in /  1009.7hPa SSE 5.0mph /  8km/h 13.0mph /  20.9km/h 63% 0.00in /  0mm WeatherDisplay:10.37 W/m2 CLR
04:30 65.8 °F /  18.8 °C 52.9 °F /  11.6 °C 29.83in /  1010hPa SSE 1.0mph /  1.6km/h 10.0mph /  16.1km/h 63% 0.00in /  0mm WeatherDisplay:10.37 W/m2 CLR
04:40 65.5 °F /  18.6 °C 53.0 °F /  11.7 °C 29.83in /  1010hPa Calm   5.0mph /  8km/h 64% 0.00in /  0mm WeatherDisplay:10.37 W/m2 CLR
04:50 65.0 °F /  18.3 °C 52.9 °F /  11.6 °C 29.83in /  1010hPa ENE 2.0mph /  3.2km/h 5.0mph /  8km/h 65% 0.00in /  0mm WeatherDisplay:10.37 W/m2 CLR
05:00 64.8 °F /  18.2 °C 53.2 °F /  11.8 °C 29.83in /  1010hPa North 3.0mph /  4.8km/h 4.0mph /  6.4km/h 66% 0.00in /  0mm WeatherDisplay:10.37 W/m2 CLR
05:10 64.9 °F /  18.3 °C 53.2 °F /  11.8 °C 29.82in /  1009.7hPa ENE 5.0mph /  8km/h 8.0mph /  12.9km/h 66% 0.00in /  0mm WeatherDisplay:10.37 W/m2 CLR
05:20 65.8 °F /  18.8 °C 53.3 °F /  11.8 °C 29.81in /  1009.4hPa ESE 1.0mph /  1.6km/h 11.0mph /  17.7km/h 64% 0.00in /  0mm WeatherDisplay:10.37 W/m2 CLR
05:30 65.8 °F /  18.8 °C 53.3 °F /  11.8 °C 29.82in /  1009.7hPa ESE 1.0mph /  1.6km/h 7.0mph /  11.3km/h 64% 0.00in /  0mm WeatherDisplay:10.37 W/m2 CLR
05:40 65.1 °F /  18.4 °C 53.4 °F /  11.9 °C 29.81in /  1009.4hPa Calm   3.0mph /  4.8km/h 66% 0.00in /  0mm WeatherDisplay:10.37 W/m2 CLR
05:50 64.8 °F /  18.2 °C 53.6 °F /  12 °C 29.80in /  1009hPa SE 7.0mph /  11.3km/h 12.0mph /  19.3km/h 67% 0.00in /  0mm WeatherDisplay:10.37 W/m2 CLR
06:00 65.1 °F /  18.4 °C 53.9 °F /  12.2 °C 29.80in /  1009hPa SSE 1.0mph /  1.6km/h 6.0mph /  9.7km/h 67% 0.00in /  0mm WeatherDisplay:10.37 W/m2 CLR
06:10 65.2 °F /  18.4 °C 53.9 °F /  12.2 °C 29.80in /  1009hPa SSW 5.0mph /  8km/h 12.0mph /  19.3km/h 67% 0.00in /  0mm WeatherDisplay:10.37 W/m2 CLR
06:20 65.8 °F /  18.8 °C 54.1 °F /  12.3 °C 29.80in /  1009hPa South 5.0mph /  8km/h 12.0mph /  19.3km/h 66% 0.00in /  0mm WeatherDisplay:10.37 W/m2 CLR
06:30 65.7 °F /  18.7 °C 54.5 °F /  12.5 °C 29.81in /  1009.4hPa SSE 3.0mph /  4.8km/h 5.0mph /  8km/h 67% 0.00in /  0mm WeatherDisplay:10.37 W/m2 BKN
06:40 65.3 °F /  18.5 °C 54.4 °F /  12.4 °C 29.80in /  1009hPa SE 1.0mph /  1.6km/h 4.0mph /  6.4km/h 68% 0.00in /  0mm WeatherDisplay:10.37 W/m2 BKN
06:50 65.1 °F /  18.4 °C 54.6 °F /  12.6 °C 29.80in /  1009hPa Calm   5.0mph /  8km/h 69% 0.00in /  0mm WeatherDisplay:10.37 W/m2 OVC
07:00 64.8 °F /  18.2 °C 54.4 °F /  12.4 °C 29.81in /  1009.4hPa Calm     69% 0.00in /  0mm WeatherDisplay:10.37 W/m2 OVC
07:10 64.8 °F /  18.2 °C 54.8 °F /  12.7 °C 29.81in /  1009.4hPa SSE 1.0mph /  1.6km/h 7.0mph /  11.3km/h 70% 0.00in /  0mm WeatherDisplay:10.37 W/m2 OVC
07:20 65.2 °F /  18.4 °C 54.3 °F /  12.4 °C 29.80in /  1009hPa SSE 2.0mph /  3.2km/h 9.0mph /  14.5km/h 68% 0.00in /  0mm WeatherDisplay:10.37 W/m2 OVC
07:30 64.9 °F /  18.3 °C 54.5 °F /  12.5 °C 29.80in /  1009hPa SSE 2.0mph /  3.2km/h 7.0mph /  11.3km/h 69% 0.00in /  0mm WeatherDisplay:10.37 W/m2 OVC
07:40 64.9 °F /  18.3 °C 54.9 °F /  12.7 °C 29.80in /  1009hPa SE 5.0mph /  8km/h 12.0mph /  19.3km/h 70% 0.00in /  0mm WeatherDisplay:10.37 W/m2 OVC
07:50 65.2 °F /  18.4 °C 55.2 °F /  12.9 °C 29.79in /  1008.7hPa East 1.0mph /  1.6km/h 7.0mph /  11.3km/h 70% 0.00in /  0mm WeatherDisplay:10.37 W/m2 OVC
08:00 65.4 °F /  18.6 °C 55.3 °F /  12.9 °C 29.79in /  1008.7hPa SE 5.0mph /  8km/h 10.0mph /  16.1km/h 70% 0.00in /  0mm WeatherDisplay:10.37 W/m2 OVC
08:10 65.4 °F /  18.6 °C 55.4 °F /  13 °C 29.78in /  1008.4hPa ESE 3.0mph /  4.8km/h 9.0mph /  14.5km/h 70% 0.00in /  0mm WeatherDisplay:10.37 W/m2 OVC
08:20 65.4 °F /  18.6 °C 55.4 °F /  13 °C 29.77in /  1008hPa ESE 5.0mph /  8km/h 12.0mph /  19.3km/h 70% 0.00in /  0mm WeatherDisplay:10.37 W/m2 OVC
08:30 65.6 °F /  18.7 °C 55.5 °F /  13.1 °C 29.77in /  1008hPa ESE 5.0mph /  8km/h 14.0mph /  22.5km/h 70% 0.00in /  0mm WeatherDisplay:10.37 W/m2 BKN
08:40 65.7 °F /  18.7 °C 55.7 °F /  13.2 °C 29.78in /  1008.4hPa SE 3.0mph /  4.8km/h 14.0mph /  22.5km/h 70% 0.00in /  0mm WeatherDisplay:10.37 W/m2 BKN
08:50 65.8 °F /  18.8 °C 55.3 °F /  12.9 °C 29.77in /  1008hPa SE 6.0mph /  9.7km/h 11.0mph /  17.7km/h 69% 0.00in /  0mm WeatherDisplay:10.37 W/m2 BKN
09:00 65.9 °F /  18.8 °C 55.0 °F /  12.8 °C 29.77in /  1008hPa ESE 3.0mph /  4.8km/h 12.0mph /  19.3km/h 68% 0.00in /  0mm WeatherDisplay:10.37 W/m2 BKN
09:10 66.1 °F /  18.9 °C 55.2 °F /  12.9 °C 29.77in /  1008hPa ESE 3.0mph /  4.8km/h 9.0mph /  14.5km/h 68% 0.00in /  0mm WeatherDisplay:10.37 W/m2 BKN
09:20 66.2 °F /  19 °C 55.3 °F /  12.9 °C 29.76in /  1007.7hPa ESE 5.0mph /  8km/h 14.0mph /  22.5km/h 68% 0.00in /  0mm WeatherDisplay:10.37 W/m2 BKN
09:30 66.2 °F /  19 °C 55.8 °F /  13.2 °C 29.75in /  1007.3hPa East 6.0mph /  9.7km/h 16.0mph /  25.7km/h 69% 0.00in /  0mm WeatherDisplay:10.37 W/m2 SCT
09:40 66.2 °F /  19 °C 55.7 °F /  13.2 °C 29.75in /  1007.3hPa East 7.0mph /  11.3km/h 14.0mph /  22.5km/h 69% 0.00in /  0mm WeatherDisplay:10.37 W/m2 SCT
09:50 66.2 °F /  19 °C 56.1 °F /  13.4 °C 29.75in /  1007.3hPa ESE 3.0mph /  4.8km/h 18.0mph /  29km/h 70% 0.00in /  0mm WeatherDisplay:10.37 W/m2 SCT
10:00 66.1 °F /  18.9 °C 56.0 °F /  13.3 °C 29.76in /  1007.7hPa ESE 6.0mph /  9.7km/h 18.0mph /  29km/h 70% 0.00in /  0mm WeatherDisplay:10.37 W/m2 SCT
10:10 66.1 °F /  18.9 °C 56.4 °F /  13.6 °C 29.75in /  1007.3hPa East 3.0mph /  4.8km/h 12.0mph /  19.3km/h 71% 0.00in /  0mm WeatherDisplay:10.37 W/m2 SCT
10:20 66.3 °F /  19.1 °C 56.6 °F /  13.7 °C 29.75in /  1007.3hPa ESE 8.0mph /  12.9km/h 14.0mph /  22.5km/h 71% 0.00in /  0mm WeatherDisplay:10.37 W/m2 SCT
10:30 66.1 °F /  18.9 °C 56.9 °F /  13.8 °C 29.74in /  1007hPa East 7.0mph /  11.3km/h 15.0mph /  24.1km/h 72% 0.00in /  0mm WeatherDisplay:10.37 W/m2 BKN
10:40 66.5 °F /  19.2 °C 56.8 °F /  13.8 °C 29.74in /  1007hPa East 8.0mph /  12.9km/h 15.0mph /  24.1km/h 71% 0.00in /  0mm WeatherDisplay:10.37 W/m2 BKN
10:50 66.5 °F /  19.2 °C 57.6 °F /  14.2 °C 29.74in /  1007hPa ESE 6.0mph /  9.7km/h 16.0mph /  25.7km/h 73% 0.00in /  0mm WeatherDisplay:10.37 W/m2 -RA
11:00 65.8 °F /  18.8 °C 58.0 °F /  14.4 °C 29.73in /  1006.7hPa East 7.0mph /  11.3km/h 14.0mph /  22.5km/h 76% 0.00in /  0mm WeatherDisplay:10.37 W/m2 -RA
11:10 65.8 °F /  18.8 °C 58.0 °F /  14.4 °C 29.73in /  1006.7hPa East 6.0mph /  9.7km/h 13.0mph /  20.9km/h 76% 0.00in /  0mm WeatherDisplay:10.37 W/m2 -RA
11:20 66.3 °F /  19.1 °C 58.1 °F /  14.5 °C 29.72in /  1006.3hPa ESE 5.0mph /  8km/h 13.0mph /  20.9km/h 75% 0.00in /  0mm WeatherDisplay:10.37 W/m2 -RA
11:30 67.1 °F /  19.5 °C 58.5 °F /  14.7 °C 29.72in /  1006.3hPa ESE 5.0mph /  8km/h 10.0mph /  16.1km/h 74% 0.00in /  0mm WeatherDisplay:10.37 W/m2 -RA
11:40 66.7 °F /  19.3 °C 58.6 °F /  14.8 °C 29.71in /  1006hPa ESE 5.0mph /  8km/h 12.0mph /  19.3km/h 75% 0.00in /  0mm WeatherDisplay:10.37 W/m2 -RA
11:50 66.3 °F /  19.1 °C 58.2 °F /  14.6 °C 29.71in /  1006hPa ESE 6.0mph /  9.7km/h 12.0mph /  19.3km/h 75% 0.00in /  0mm WeatherDisplay:10.37 W/m2 -RA
12:00 65.9 °F /  18.8 °C 58.5 °F /  14.7 °C 29.70in /  1005.6hPa East 3.0mph /  4.8km/h 13.0mph /  20.9km/h 77% 0.00in /  0mm WeatherDisplay:10.37 W/m2 -RA
12:10 65.5 °F /  18.6 °C 58.4 °F /  14.7 °C 29.69in /  1005.3hPa ESE 5.0mph /  8km/h 14.0mph /  22.5km/h 78% 0.00in /  0mm WeatherDisplay:10.37 W/m2 -RA
12:20 65.1 °F /  18.4 °C 58.5 °F /  14.7 °C 29.68in /  1005hPa East 5.0mph /  8km/h 13.0mph /  20.9km/h 79% 0.00in /  0mm WeatherDisplay:10.37 W/m2 -RA
12:30 64.3 °F /  17.9 °C 58.7 °F /  14.8 °C 29.68in /  1005hPa ESE 5.0mph /  8km/h 10.0mph /  16.1km/h 82% 0.00in /  0mm WeatherDisplay:10.37 W/m2 RA
12:40 64.2 °F /  17.9 °C 58.9 °F /  14.9 °C 29.68in /  1005hPa ESE 3.0mph /  4.8km/h 15.0mph /  24.1km/h 83% 0.00in /  0mm WeatherDisplay:10.37 W/m2 RA
12:50 63.7 °F /  17.6 °C 59.1 °F /  15.1 °C 29.68in /  1005hPa East 3.0mph /  4.8km/h 7.0mph /  11.3km/h 85% 0.05in /  1.27mm WeatherDisplay:10.37 W/m2 RA
13:00 62.9 °F /  17.2 °C 58.9 °F /  14.9 °C 29.68in /  1005hPa Calm   6.0mph /  9.7km/h 87% 0.01in /  0.25mm WeatherDisplay:10.37 W/m2 RA
13:10 62.3 °F /  16.8 °C 59.0 °F /  15 °C 29.67in /  1004.6hPa ESE 1.0mph /  1.6km/h 3.0mph /  4.8km/h 89% 0.01in /  0.25mm WeatherDisplay:10.37 W/m2 +RA
13:20 62.0 °F /  16.7 °C 59.0 °F /  15 °C 29.68in /  1005hPa SSE 1.0mph /  1.6km/h 4.0mph /  6.4km/h 90% 0.06in /  1.52mm WeatherDisplay:10.37 W/m2 +RA
13:30 61.3 °F /  16.3 °C 58.3 °F /  14.6 °C 29.68in /  1005hPa West 2.0mph /  3.2km/h 15.0mph /  24.1km/h 90% 0.25in /  6.35mm WeatherDisplay:10.37 W/m2 -RA
13:40 60.7 °F /  15.9 °C 57.7 °F /  14.3 °C 29.67in /  1004.6hPa SSW 7.0mph /  11.3km/h 17.0mph /  27.4km/h 90% 0.12in /  3.05mm WeatherDisplay:10.37 W/m2 -RA
13:50 60.6 °F /  15.9 °C 58.0 °F /  14.4 °C 29.67in /  1004.6hPa SW 2.0mph /  3.2km/h 14.0mph /  22.5km/h 91% 0.01in /  0.25mm WeatherDisplay:10.37 W/m2 RA
14:00 60.6 °F /  15.9 °C 58.0 °F /  14.4 °C 29.66in /  1004.3hPa West 1.0mph /  1.6km/h 7.0mph /  11.3km/h 91% 0.00in /  0mm WeatherDisplay:10.37 W/m2 RA
14:10 60.5 °F /  15.8 °C 57.9 °F /  14.4 °C 29.66in /  1004.3hPa Calm   3.0mph /  4.8km/h 91% 0.00in /  0mm WeatherDisplay:10.37 W/m2 RA
14:20 60.5 °F /  15.8 °C 57.9 °F /  14.4 °C 29.65in /  1003.9hPa NE 3.0mph /  4.8km/h 8.0mph /  12.9km/h 91% 0.00in /  0mm WeatherDisplay:10.37 W/m2 RA
14:30 60.4 °F /  15.8 °C 57.8 °F /  14.3 °C 29.67in /  1004.6hPa South 1.0mph /  1.6km/h 5.0mph /  8km/h 91% 0.00in /  0mm WeatherDisplay:10.37 W/m2 RA
14:40 60.2 °F /  15.7 °C 57.5 °F /  14.2 °C 29.66in /  1004.3hPa SW 3.0mph /  4.8km/h 8.0mph /  12.9km/h 91% 0.01in /  0.25mm WeatherDisplay:10.37 W/m2 RA
14:50 59.9 °F /  15.5 °C 57.3 °F /  14.1 °C 29.64in /  1003.6hPa Calm   7.0mph /  11.3km/h 91% 0.00in /  0mm WeatherDisplay:10.37 W/m2 RA
15:00 59.9 °F /  15.5 °C 57.3 °F /  14.1 °C 29.63in /  1003.3hPa Calm   3.0mph /  4.8km/h 91% 0.00in /  0mm WeatherDisplay:10.37 W/m2 OVC
15:10 60.0 °F /  15.6 °C 57.4 °F /  14.1 °C 29.62in /  1002.9hPa Calm   2.0mph /  3.2km/h 91% 0.00in /  0mm WeatherDisplay:10.37 W/m2 OVC
15:20 60.0 °F /  15.6 °C 57.3 °F /  14.1 °C 29.62in /  1002.9hPa SSW 1.0mph /  1.6km/h 3.0mph /  4.8km/h 91% 0.00in /  0mm WeatherDisplay:10.37 W/m2 OVC
15:30 59.9 °F /  15.5 °C 57.3 °F /  14.1 °C 29.62in /  1002.9hPa Calm   2.0mph /  3.2km/h 91% 0.01in /  0.25mm WeatherDisplay:10.37 W/m2 RA
15:40 60.0 °F /  15.6 °C 57.4 °F /  14.1 °C 29.62in /  1002.9hPa Calm   2.0mph /  3.2km/h 91% 0.00in /  0mm WeatherDisplay:10.37 W/m2 OVC
15:50 60.3 °F /  15.7 °C 58.0 °F /  14.4 °C 29.61in /  1002.6hPa SSE 2.0mph /  3.2km/h 4.0mph /  6.4km/h 92% 0.00in /  0mm WeatherDisplay:10.37 W/m2 OVC
16:00 60.1 °F /  15.6 °C 57.5 °F /  14.2 °C 29.62in /  1002.9hPa Calm   3.0mph /  4.8km/h 91% 0.00in /  0mm WeatherDisplay:10.37 W/m2 RA
16:10 59.8 °F /  15.4 °C 57.2 °F /  14 °C 29.61in /  1002.6hPa East 2.0mph /  3.2km/h 3.0mph /  4.8km/h 91% 0.00in /  0mm WeatherDisplay:10.37 W/m2 RA
16:20 59.8 °F /  15.4 °C 57.2 °F /  14 °C 29.60in /  1002.3hPa East 3.0mph /  4.8km/h 7.0mph /  11.3km/h 91% 0.00in /  0mm WeatherDisplay:10.37 W/m2 RA
16:30 59.5 °F /  15.3 °C 57.2 °F /  14 °C 29.59in /  1001.9hPa NE 5.0mph /  8km/h 8.0mph /  12.9km/h 92% 0.02in /  0.51mm WeatherDisplay:10.37 W/m2 RA
16:40 59.4 °F /  15.2 °C 56.8 °F /  13.8 °C 29.58in /  1001.6hPa NE 1.0mph /  1.6km/h 6.0mph /  9.7km/h 91% 0.01in /  0.25mm WeatherDisplay:10.37 W/m2 RA
16:50 59.5 °F /  15.3 °C 57.1 °F /  13.9 °C 29.58in /  1001.6hPa NNW 2.0mph /  3.2km/h 6.0mph /  9.7km/h 92% 0.00in /  0mm WeatherDisplay:10.37 W/m2 OVC
17:00 59.1 °F /  15.1 °C 56.8 °F /  13.8 °C 29.58in /  1001.6hPa WNW 1.0mph /  1.6km/h 7.0mph /  11.3km/h 92% 0.00in /  0mm WeatherDisplay:10.37 W/m2 OVC
17:10 59.1 °F /  15.1 °C 56.8 °F /  13.8 °C 29.58in /  1001.6hPa SSE 1.0mph /  1.6km/h 4.0mph /  6.4km/h 92% 0.00in /  0mm WeatherDisplay:10.37 W/m2 OVC
17:20 59.2 °F /  15.1 °C 56.8 °F /  13.8 °C 29.58in /  1001.6hPa Calm   2.0mph /  3.2km/h 92% 0.00in /  0mm WeatherDisplay:10.37 W/m2 OVC
17:30 59.1 °F /  15.1 °C 56.8 °F /  13.8 °C 29.58in /  1001.6hPa Calm   2.0mph /  3.2km/h 92% 0.00in /  0mm WeatherDisplay:10.37 W/m2 -RA
17:40 59.0 °F /  15 °C 56.7 °F /  13.7 °C 29.58in /  1001.6hPa Calm   3.0mph /  4.8km/h 92% 0.00in /  0mm WeatherDisplay:10.37 W/m2 -RA
17:50 59.0 °F /  15 °C 56.7 °F /  13.7 °C 29.58in /  1001.6hPa North 1.0mph /  1.6km/h 3.0mph /  4.8km/h 92% 0.01in /  0.25mm WeatherDisplay:10.37 W/m2 -RA
18:00 58.9 °F /  14.9 °C 56.6 °F /  13.7 °C 29.57in /  1001.2hPa Calm   3.0mph /  4.8km/h 92% 0.00in /  0mm WeatherDisplay:10.37 W/m2 -RA
18:10 58.9 °F /  14.9 °C 56.6 °F /  13.7 °C 29.56in /  1000.9hPa NNE 2.0mph /  3.2km/h 5.0mph /  8km/h 92% 0.00in /  0mm WeatherDisplay:10.37 W/m2 -RA
18:20 58.7 °F /  14.8 °C 56.4 °F /  13.6 °C 29.55in /  1000.6hPa NE 1.0mph /  1.6km/h 3.0mph /  4.8km/h 92% 0.00in /  0mm WeatherDisplay:10.37 W/m2 -RA
18:30 58.7 °F /  14.8 °C 56.4 °F /  13.6 °C 29.55in /  1000.6hPa NE 2.0mph /  3.2km/h 4.0mph /  6.4km/h 92% 0.00in /  0mm WeatherDisplay:10.37 W/m2 RA
18:40 58.7 °F /  14.8 °C 56.4 °F /  13.6 °C 29.55in /  1000.6hPa NE 1.0mph /  1.6km/h 4.0mph /  6.4km/h 92% 0.00in /  0mm WeatherDisplay:10.37 W/m2 RA
18:50 58.5 °F /  14.7 °C 56.2 °F /  13.4 °C 29.54in /  1000.2hPa NNE 2.0mph /  3.2km/h 7.0mph /  11.3km/h 92% 0.06in /  1.52mm WeatherDisplay:10.37 W/m2 -RA
19:00 58.3 °F /  14.6 °C 56.0 °F /  13.3 °C 29.55in /  1000.6hPa NNE 1.0mph /  1.6km/h 2.0mph /  3.2km/h 92% 0.00in /  0mm WeatherDisplay:10.37 W/m2 -RA
19:10 58.2 °F /  14.6 °C 55.9 °F /  13.3 °C 29.55in /  1000.6hPa NNE 1.0mph /  1.6km/h 3.0mph /  4.8km/h 92% 0.00in /  0mm WeatherDisplay:10.37 W/m2 -RA
19:20 58.1 °F /  14.5 °C 55.8 °F /  13.2 °C 29.54in /  1000.2hPa Calm   3.0mph /  4.8km/h 92% 0.00in /  0mm WeatherDisplay:10.37 W/m2 -RA
19:30 58.0 °F /  14.4 °C 55.7 °F /  13.2 °C 29.53in /  999.9hPa Calm   4.0mph /  6.4km/h 92% 0.00in /  0mm WeatherDisplay:10.37 W/m2 RA
19:40 58.0 °F /  14.4 °C 55.7 °F /  13.2 °C 29.53in /  999.9hPa Calm   3.0mph /  4.8km/h 92% 0.00in /  0mm WeatherDisplay:10.37 W/m2 OVC
19:50 58.1 °F /  14.5 °C 55.8 °F /  13.2 °C 29.54in /  1000.2hPa Calm   2.0mph /  3.2km/h 92% 0.01in /  0.25mm WeatherDisplay:10.37 W/m2 -RA
20:00 58.1 °F /  14.5 °C 55.8 °F /  13.2 °C 29.54in /  1000.2hPa WSW 2.0mph /  3.2km/h 3.0mph /  4.8km/h 92% 0.00in /  0mm WeatherDisplay:10.37 W/m2 -RA
20:10 58.1 °F /  14.5 °C 55.8 °F /  13.2 °C 29.55in /  1000.6hPa WSW 1.0mph /  1.6km/h 4.0mph /  6.4km/h 92% 0.00in /  0mm WeatherDisplay:10.37 W/m2 -RA
20:20 57.6 °F /  14.2 °C 55.2 °F /  12.9 °C 29.55in /  1000.6hPa SSW 5.0mph /  8km/h 11.0mph /  17.7km/h 92% 0.00in /  0mm WeatherDisplay:10.37 W/m2 -RA
20:30 56.4 °F /  13.6 °C 54.1 °F /  12.3 °C 29.55in /  1000.6hPa SW 3.0mph /  4.8km/h 12.0mph /  19.3km/h 92% 0.00in /  0mm WeatherDisplay:10.37 W/m2 RA
20:40 55.5 °F /  13.1 °C 53.2 °F /  11.8 °C 29.55in /  1000.6hPa SW 3.0mph /  4.8km/h 10.0mph /  16.1km/h 92% 0.01in /  0.25mm WeatherDisplay:10.37 W/m2 RA
20:50 54.7 °F /  12.6 °C 52.4 °F /  11.3 °C 29.55in /  1000.6hPa South 2.0mph /  3.2km/h 6.0mph /  9.7km/h 92% 0.00in /  0mm WeatherDisplay:10.37 W/m2 RA
21:00 54.3 °F /  12.4 °C 52.0 °F /  11.1 °C 29.57in /  1001.2hPa SSW 7.0mph /  11.3km/h 12.0mph /  19.3km/h 92% 0.00in /  0mm WeatherDisplay:10.37 W/m2 RA
21:10 53.9 °F /  12.2 °C 51.6 °F /  10.9 °C 29.56in /  1000.9hPa SW 5.0mph /  8km/h 14.0mph /  22.5km/h 92% 0.00in /  0mm WeatherDisplay:10.37 W/m2 RA
21:20 53.6 °F /  12 °C 51.3 °F /  10.7 °C 29.57in /  1001.2hPa SW 5.0mph /  8km/h 10.0mph /  16.1km/h 92% 0.00in /  0mm WeatherDisplay:10.37 W/m2 RA
21:30 53.3 °F /  11.8 °C 51.1 °F /  10.6 °C 29.56in /  1000.9hPa WSW 3.0mph /  4.8km/h 12.0mph /  19.3km/h 92% 0.00in /  0mm WeatherDisplay:10.37 W/m2 RA
21:40 53.0 °F /  11.7 °C 50.7 °F /  10.4 °C 29.56in /  1000.9hPa SW 2.0mph /  3.2km/h 12.0mph /  19.3km/h 92% 0.03in /  0.76mm WeatherDisplay:10.37 W/m2 RA
21:50 52.7 °F /  11.5 °C 50.4 °F /  10.2 °C 29.55in /  1000.6hPa SSW 3.0mph /  4.8km/h 7.0mph /  11.3km/h 92% 0.00in /  0mm WeatherDisplay:10.37 W/m2 RA
22:00 52.7 °F /  11.5 °C 50.7 °F /  10.4 °C 29.57in /  1001.2hPa SW 5.0mph /  8km/h 12.0mph /  19.3km/h 93% 0.00in /  0mm WeatherDisplay:10.37 W/m2 RA
22:10 52.4 °F /  11.3 °C 50.4 °F /  10.2 °C 29.56in /  1000.9hPa SW 3.0mph /  4.8km/h 13.0mph /  20.9km/h 93% 0.00in /  0mm WeatherDisplay:10.37 W/m2 OVC
22:20 52.2 °F /  11.2 °C 49.9 °F /  9.9 °C 29.57in /  1001.2hPa SW 5.0mph /  8km/h 9.0mph /  14.5km/h 92% 0.00in /  0mm WeatherDisplay:10.37 W/m2 OVC
22:30 52.0 °F /  11.1 °C 50.0 °F /  10 °C 29.58in /  1001.6hPa SW 3.0mph /  4.8km/h 10.0mph /  16.1km/h 93% 0.01in /  0.25mm WeatherDisplay:10.37 W/m2 RA
22:40 51.7 °F /  10.9 °C 49.8 °F /  9.9 °C 29.57in /  1001.2hPa SW 5.0mph /  8km/h 10.0mph /  16.1km/h 93% 0.00in /  0mm WeatherDisplay:10.37 W/m2 OVC
22:50 51.4 °F /  10.8 °C 49.4 °F /  9.7 °C 29.59in /  1001.9hPa SW 5.0mph /  8km/h 12.0mph /  19.3km/h 93% 0.00in /  0mm WeatherDisplay:10.37 W/m2 RA
23:00 50.6 °F /  10.3 °C 48.7 °F /  9.3 °C 29.57in /  1001.2hPa SW 7.0mph /  11.3km/h 16.0mph /  25.7km/h 93% 0.00in /  0mm WeatherDisplay:10.37 W/m2 OVC
23:10 50.0 °F /  10 °C 48.1 °F /  8.9 °C 29.58in /  1001.6hPa SW 5.0mph /  8km/h 16.0mph /  25.7km/h 93% 0.00in /  0mm WeatherDisplay:10.37 W/m2 RA
23:20 49.6 °F /  9.8 °C 47.7 °F /  8.7 °C 29.58in /  1001.6hPa SW 5.0mph /  8km/h 14.0mph /  22.5km/h 93% 0.00in /  0mm WeatherDisplay:10.37 W/m2 OVC
23:30 49.4 °F /  9.7 °C 47.4 °F /  8.6 °C 29.58in /  1001.6hPa SW 5.0mph /  8km/h 14.0mph /  22.5km/h 93% 0.00in /  0mm WeatherDisplay:10.37 W/m2 RA
23:40 49.2 °F /  9.6 °C 47.3 °F /  8.5 °C 29.59in /  1001.9hPa SW 6.0mph /  9.7km/h 12.0mph /  19.3km/h 93% 0.00in /  0mm WeatherDisplay:10.37 W/m2 OVC
23:50 49.1 °F /  9.5 °C 47.2 °F /  8.4 °C 29.58in /  1001.6hPa SW 5.0mph /  8km/h 10.0mph /  16.1km/h 93% 0.00in /  0mm WeatherDisplay:10.37 W/m2 +DZ
Smyth Weather
Compliments of Weather Underground - 1.5 mb